createdAt,value
2023-09-07T00:01:07.549Z,63.03
2023-09-07T00:03:34.698Z,59.58
2023-09-07T00:06:02.330Z,55.42
2023-09-07T00:08:29.636Z,62.15
2023-09-07T00:10:56.915Z,56.95
2023-09-07T00:13:23.936Z,64.25
2023-09-07T00:15:51.229Z,63.50
2023-09-07T00:18:20.282Z,68.95
2023-09-07T00:20:47.510Z,53.05
2023-09-07T00:23:14.647Z,61.40
2023-09-07T00:25:41.739Z,62.80
2023-09-07T00:28:08.769Z,59.60
2023-09-07T00:30:36.024Z,55.38
2023-09-07T00:33:03.027Z,51.38
2023-09-07T00:35:30.131Z,58.88
2023-09-07T00:37:57.139Z,43.47
2023-09-07T00:40:27.590Z,58.88
2023-09-07T00:42:55.180Z,60.67
2023-09-07T00:45:22.162Z,54.58
2023-09-07T00:47:49.165Z,51.28
2023-09-07T00:50:17.705Z,57.20
2023-09-07T00:52:44.938Z,53.85
2023-09-07T00:55:12.035Z,58.70
2023-09-07T00:57:40.898Z,51.67
2023-09-07T01:00:08.939Z,55.17
2023-09-07T01:02:36.466Z,57.55
2023-09-07T01:05:06.776Z,51.97
2023-09-07T01:07:46.677Z,53.05
2023-09-07T01:10:14.550Z,55.53
2023-09-07T01:12:42.020Z,45.08
2023-09-07T01:15:09.825Z,47.92
2023-09-07T01:17:37.424Z,51.15
2023-09-07T01:20:10.731Z,51.75
2023-09-07T01:22:38.730Z,47.78
2023-09-07T01:25:08.051Z,51.38
2023-09-07T01:27:35.542Z,52.60
2023-09-07T01:30:03.969Z,51.03
2023-09-07T01:32:31.111Z,48.40
2023-09-07T01:34:59.094Z,56.15
2023-09-07T01:37:26.442Z,54.00
2023-09-07T01:39:53.631Z,59.47
2023-09-07T01:42:23.105Z,58.42
2023-09-07T01:44:50.325Z,50.80
2023-09-07T01:47:17.612Z,58.20
2023-09-07T01:49:44.792Z,47.95
2023-09-07T01:52:11.741Z,62.55
2023-09-07T01:54:38.998Z,51.67
2023-09-07T01:57:08.457Z,57.92
2023-09-07T01:59:36.665Z,57.08
2023-09-07T02:02:06.394Z,56.40
2023-09-07T02:04:34.830Z,55.40
2023-09-07T02:07:01.853Z,53.17
2023-09-07T02:09:28.899Z,59.55
2023-09-07T02:11:57.090Z,59.20
2023-09-07T02:14:24.235Z,65.88
2023-09-07T02:16:52.066Z,53.10
2023-09-07T02:19:19.302Z,47.28
2023-09-07T02:21:46.380Z,57.85
2023-09-07T02:24:13.431Z,57.17
2023-09-07T02:26:46.450Z,57.00
2023-09-07T02:29:14.173Z,53.60
2023-09-07T02:31:41.852Z,52.65
2023-09-07T02:34:09.059Z,58.15
2023-09-07T02:36:37.006Z,50.13
2023-09-07T02:39:04.830Z,57.03
2023-09-07T02:41:32.942Z,51.50
2023-09-07T02:44:00.008Z,47.55
2023-09-07T02:46:27.098Z,50.28
2023-09-07T02:48:58.215Z,49.63
2023-09-07T02:51:25.913Z,57.20
2023-09-07T02:53:53.220Z,56.72
2023-09-07T02:56:20.214Z,54.80
2023-09-07T02:58:49.702Z,51.40
2023-09-07T03:01:22.856Z,55.53
2023-09-07T03:03:50.407Z,52.58
2023-09-07T03:06:18.017Z,51.40
2023-09-07T03:08:45.121Z,55.60
2023-09-07T03:11:14.686Z,54.20
2023-09-07T03:13:43.804Z,63.05
2023-09-07T03:16:11.588Z,55.45
2023-09-07T03:18:38.720Z,55.38
2023-09-07T03:21:08.952Z,55.13
2023-09-07T03:23:36.014Z,59.72
2023-09-07T03:26:03.030Z,59.33
2023-09-07T03:28:30.479Z,48.05
2023-09-07T03:30:57.808Z,57.72
2023-09-07T03:33:24.933Z,48.17
2023-09-07T03:35:53.157Z,49.65
2023-09-07T03:38:23.305Z,61.40
2023-09-07T03:40:54.465Z,64.22
2023-09-07T03:43:21.707Z,50.88
2023-09-07T03:45:48.910Z,53.03
2023-09-07T03:48:15.987Z,64.68
2023-09-07T03:50:42.955Z,55.63
2023-09-07T03:53:09.976Z,54.83
2023-09-07T03:55:43.511Z,53.15
2023-09-07T04:00:42.338Z,58.55
2023-09-07T04:03:09.841Z,50.58
2023-09-07T04:05:40.321Z,51.70
2023-09-07T04:08:07.704Z,55.05
2023-09-07T04:10:39.664Z,55.97
2023-09-07T04:13:07.602Z,51.55
2023-09-07T04:15:35.733Z,54.53
2023-09-07T04:18:09.927Z,49.22
2023-09-07T04:20:36.957Z,61.83
2023-09-07T04:23:04.214Z,52.65
2023-09-07T04:25:31.335Z,40.67
2023-09-07T04:27:58.354Z,52.80
2023-09-07T04:30:26.483Z,54.33
2023-09-07T04:32:53.873Z,49.92
2023-09-07T04:35:20.945Z,57.50
2023-09-07T04:37:48.002Z,66.78
2023-09-07T04:40:15.386Z,56.70
2023-09-07T04:42:42.361Z,55.50
2023-09-07T04:45:10.138Z,47.00
2023-09-07T04:47:38.408Z,44.78
2023-09-07T04:50:06.212Z,56.88
2023-09-07T04:52:33.443Z,53.35
2023-09-07T04:55:00.537Z,53.95
2023-09-07T04:57:27.497Z,44.35
2023-09-07T04:59:57.508Z,54.28
2023-09-07T05:02:24.658Z,49.45
2023-09-07T05:04:51.680Z,51.03
2023-09-07T05:07:18.666Z,48.47
2023-09-07T05:09:45.747Z,48.90
2023-09-07T05:12:12.907Z,47.75
2023-09-07T05:14:39.925Z,52.65
2023-09-07T05:17:07.019Z,54.42
2023-09-07T05:19:34.001Z,53.33
2023-09-07T05:22:01.165Z,50.08
2023-09-07T05:24:28.143Z,45.47
2023-09-07T05:26:55.179Z,54.72
2023-09-07T05:29:23.046Z,55.90
2023-09-07T05:31:50.103Z,49.28
2023-09-07T05:34:17.200Z,55.97
2023-09-07T05:36:44.264Z,59.50
2023-09-07T05:39:11.332Z,60.58
2023-09-07T05:41:38.458Z,47.00
2023-09-07T05:44:05.881Z,49.53
2023-09-07T05:46:33.019Z,42.53
2023-09-07T05:49:00.154Z,53.70
2023-09-07T05:51:27.235Z,51.35
2023-09-07T05:53:56.515Z,49.47
2023-09-07T05:56:23.804Z,47.58
2023-09-07T05:58:50.875Z,48.05
2023-09-07T06:01:17.976Z,57.70
2023-09-07T06:03:45.394Z,54.55
2023-09-07T06:06:12.776Z,50.78
2023-09-07T06:08:40.990Z,47.15
2023-09-07T06:11:08.063Z,57.70
2023-09-07T06:13:35.330Z,47.80
2023-09-07T06:16:02.681Z,48.65
2023-09-07T06:18:30.458Z,46.00
2023-09-07T06:20:58.895Z,50.42
2023-09-07T06:23:26.167Z,46.42
2023-09-07T06:25:53.246Z,53.47
2023-09-07T06:28:20.292Z,50.25
2023-09-07T06:30:47.350Z,51.10
2023-09-07T06:33:14.395Z,49.17
2023-09-07T06:35:41.555Z,52.70
2023-09-07T06:38:08.618Z,53.28
2023-09-07T06:40:35.606Z,53.95
2023-09-07T06:43:06.616Z,62.38
2023-09-07T06:45:37.211Z,58.17
2023-09-07T06:48:05.258Z,68.63
2023-09-07T06:50:32.491Z,66.25
2023-09-07T06:53:58.143Z,63.13
2023-09-07T06:56:27.314Z,53.90
2023-09-07T06:59:05.022Z,53.17
2023-09-07T07:01:35.236Z,60.15
2023-09-07T07:04:05.171Z,69.28
2023-09-07T07:06:32.406Z,61.28
2023-09-07T07:09:02.232Z,67.07
2023-09-07T07:11:29.445Z,59.00
2023-09-07T07:13:56.538Z,57.35
2023-09-07T07:16:26.004Z,52.67
2023-09-07T07:18:53.435Z,62.50
2023-09-07T07:21:20.662Z,53.08
2023-09-07T07:23:48.312Z,63.38
2023-09-07T07:26:15.532Z,56.92
2023-09-07T07:28:44.153Z,58.30
2023-09-07T07:31:13.734Z,58.50
2023-09-07T07:33:45.995Z,54.70
2023-09-07T07:40:08.072Z,57.05
2023-09-07T07:42:35.117Z,50.67
2023-09-07T07:45:02.153Z,50.28
2023-09-07T07:47:29.777Z,64.55
2023-09-07T07:49:56.809Z,60.83
2023-09-07T07:52:23.732Z,60.13
2023-09-07T07:54:50.906Z,49.97
2023-09-07T07:57:17.920Z,50.85
2023-09-07T07:59:44.937Z,52.17
2023-09-07T08:02:11.934Z,50.13
2023-09-07T08:04:39.052Z,47.47
2023-09-07T08:07:06.802Z,53.10
2023-09-07T08:09:33.881Z,49.00
2023-09-07T08:12:03.880Z,40.58
2023-09-07T08:14:30.900Z,52.65
2023-09-07T08:16:58.372Z,45.15
2023-09-07T08:19:25.754Z,44.15
2023-09-07T08:21:52.884Z,49.63
2023-09-07T08:24:19.870Z,45.88
2023-09-07T08:26:46.979Z,52.70
2023-09-07T08:29:14.053Z,42.47
2023-09-07T08:31:41.174Z,44.25
2023-09-07T08:34:11.194Z,39.28
2023-09-07T08:36:38.419Z,55.33
2023-09-07T08:39:11.171Z,41.00
2023-09-07T08:42:00.690Z,56.97
2023-09-07T08:44:29.865Z,60.47
2023-09-07T08:46:56.997Z,46.25
2023-09-07T08:49:27.051Z,51.75
2023-09-07T08:51:54.453Z,41.28
2023-09-07T08:54:21.583Z,38.28
2023-09-07T08:56:48.802Z,37.03
2023-09-07T08:59:17.301Z,33.38
2023-09-07T09:01:44.679Z,42.83
2023-09-07T09:04:12.059Z,34.67
2023-09-07T09:06:39.356Z,31.20
2023-09-07T09:09:07.103Z,38.65
2023-09-07T09:11:34.196Z,39.28
2023-09-07T09:14:01.295Z,35.53
2023-09-07T09:16:29.937Z,42.20
2023-09-07T09:18:58.191Z,33.53
2023-09-07T09:21:28.994Z,35.67
2023-09-07T09:23:58.230Z,37.00
2023-09-07T09:26:27.950Z,32.78
2023-09-07T09:28:57.825Z,34.95
2023-09-07T09:31:26.346Z,34.80
2023-09-07T09:33:53.870Z,33.47
2023-09-07T09:36:21.510Z,36.13
2023-09-07T09:38:54.311Z,33.60
2023-09-07T09:41:22.482Z,31.20
2023-09-07T09:43:53.787Z,30.52
2023-09-07T09:46:21.167Z,37.60
2023-09-07T09:48:53.665Z,32.00
2023-09-07T09:51:20.877Z,27.47
2023-09-07T09:53:47.918Z,30.02
2023-09-07T09:56:17.833Z,26.17
2023-09-07T09:58:44.947Z,21.48
2023-09-07T10:01:25.817Z,22.38
2023-09-07T10:03:53.123Z,24.33
2023-09-07T10:06:24.355Z,22.67
2023-09-07T10:09:17.743Z,25.67
2023-09-07T10:11:44.863Z,31.70
2023-09-07T10:14:14.558Z,22.42
2023-09-07T10:16:49.834Z,23.38
2023-09-07T10:19:18.278Z,20.33
2023-09-07T10:21:54.176Z,20.80
2023-09-07T10:24:30.430Z,25.92
2023-09-07T10:27:04.453Z,18.88
2023-09-07T10:29:42.358Z,22.65
2023-09-07T10:32:12.231Z,23.35
2023-09-07T10:34:44.281Z,15.82
2023-09-07T10:37:16.539Z,17.40
2023-09-07T10:39:44.747Z,20.42
2023-09-07T10:42:25.492Z,20.92
2023-09-07T10:44:53.281Z,16.67
2023-09-07T10:47:22.778Z,18.95
2023-09-07T10:49:49.939Z,19.10
2023-09-07T10:52:17.069Z,13.73
2023-09-07T10:54:47.339Z,15.90
2023-09-07T10:57:22.026Z,17.88
2023-09-07T11:00:00.832Z,13.77
2023-09-07T11:03:24.532Z,16.10
2023-09-07T11:05:57.973Z,11.80
2023-09-07T11:11:29.228Z,14.15
2023-09-07T11:13:58.683Z,14.15
2023-09-07T11:16:27.018Z,22.83
2023-09-07T11:18:55.831Z,11.23
2023-09-07T11:21:23.846Z,14.93
2023-09-07T11:23:58.612Z,16.83
2023-09-07T11:26:54.915Z,15.52
2023-09-07T11:29:36.751Z,8.90
2023-09-07T11:32:23.137Z,14.32
2023-09-07T11:35:32.321Z,14.55
2023-09-07T11:38:39.898Z,8.15
2023-09-07T11:41:18.451Z,10.73
2023-09-07T11:43:52.080Z,7.65
2023-09-07T11:54:07.904Z,6.18
2023-09-07T12:00:16.912Z,8.65
2023-09-07T12:02:50.149Z,9.43
2023-09-07T12:05:24.086Z,9.80
2023-09-07T12:07:52.272Z,7.28
2023-09-07T12:10:19.383Z,14.98
2023-09-07T12:12:48.513Z,9.70
2023-09-07T12:15:18.598Z,12.13
2023-09-07T12:17:45.878Z,5.55
2023-09-07T12:20:17.276Z,6.50
2023-09-07T12:22:44.304Z,7.88
2023-09-07T12:25:16.225Z,9.85
2023-09-07T12:30:28.078Z,7.53
2023-09-07T12:32:55.232Z,3.40
2023-09-07T12:35:22.529Z,4.28
2023-09-07T12:37:53.558Z,4.97
2023-09-07T12:40:20.561Z,5.28
2023-09-07T12:42:58.080Z,7.05
2023-09-07T12:45:25.521Z,5.10
2023-09-07T12:47:55.596Z,7.90
2023-09-07T12:50:31.764Z,4.32
2023-09-07T12:53:01.946Z,5.07
2023-09-07T12:58:04.911Z,3.38
2023-09-07T13:00:32.478Z,3.85
2023-09-07T13:03:00.197Z,6.80
2023-09-07T13:05:27.280Z,3.80
2023-09-07T13:07:55.750Z,8.95
2023-09-07T13:10:22.979Z,4.30
2023-09-07T13:12:49.876Z,3.47
2023-09-07T13:15:16.900Z,3.47
2023-09-07T13:17:44.288Z,8.77
2023-09-07T13:20:13.649Z,3.78
2023-09-07T13:56:38.276Z,4.57
2023-09-07T13:59:06.123Z,3.53
2023-09-07T14:09:28.068Z,6.28
2023-09-07T14:35:38.143Z,2.83
2023-09-07T14:38:07.615Z,3.33
2023-09-07T14:40:43.846Z,4.05
2023-09-07T14:43:14.236Z,8.15
2023-09-07T14:45:45.724Z,5.57
2023-09-07T14:48:13.383Z,3.33
2023-09-07T14:50:47.987Z,6.47
2023-09-07T14:56:26.016Z,4.13
2023-09-07T14:59:24.297Z,1.95
2023-09-07T15:05:17.228Z,2.20
2023-09-07T15:07:55.247Z,3.70
2023-09-07T15:10:28.968Z,2.85
2023-09-07T15:13:15.207Z,3.90
2023-09-07T15:15:58.372Z,5.13
2023-09-07T15:18:28.266Z,2.45
2023-09-07T15:20:55.803Z,4.78
2023-09-07T15:23:37.948Z,2.28
2023-09-07T15:26:46.902Z,7.68
2023-09-07T15:29:34.759Z,3.17
2023-09-07T15:32:07.331Z,2.08
2023-09-07T15:34:45.812Z,3.05
2023-09-07T15:40:41.629Z,2.88
2023-09-07T15:47:30.250Z,4.70
2023-09-07T16:05:20.965Z,2.80
2023-09-07T16:07:54.051Z,3.50
2023-09-07T16:14:12.817Z,4.07
2023-09-07T16:17:19.221Z,16.33
2023-09-07T16:22:56.902Z,4.70
2023-09-07T16:25:38.598Z,3.80
2023-09-07T16:28:10.561Z,3.35
2023-09-07T16:30:37.593Z,2.80
2023-09-07T16:36:48.520Z,7.60
2023-09-07T16:39:54.991Z,5.18
2023-09-07T16:42:59.103Z,5.63
2023-09-07T16:45:28.863Z,6.95
2023-09-07T17:15:35.362Z,9.55
2023-09-07T17:19:13.770Z,4.43
2023-09-07T17:22:50.466Z,5.60
2023-09-07T17:26:16.285Z,5.20
2023-09-07T17:33:42.849Z,10.00
2023-09-07T17:40:06.674Z,8.10
2023-09-07T17:42:39.272Z,5.65
2023-09-07T17:45:07.029Z,9.85
2023-09-07T17:47:34.724Z,4.65
2023-09-07T17:50:07.149Z,7.15
2023-09-07T17:52:40.907Z,4.87
2023-09-07T17:55:19.225Z,6.03
2023-09-07T17:57:49.352Z,11.40
2023-09-07T18:00:19.247Z,6.05
2023-09-07T18:06:44.824Z,8.32
2023-09-07T18:09:31.073Z,4.70
2023-09-07T18:12:08.067Z,9.77
2023-09-07T18:14:56.424Z,4.20
2023-09-07T18:17:41.148Z,9.85
2023-09-07T18:20:09.424Z,5.78
2023-09-07T18:22:37.089Z,5.53
2023-09-07T18:25:04.175Z,8.00
2023-09-07T18:27:31.409Z,9.02
2023-09-07T18:30:02.093Z,8.05
2023-09-07T18:32:31.982Z,6.75
2023-09-07T18:38:19.838Z,8.15
2023-09-07T18:40:57.821Z,6.55
2023-09-07T18:44:25.316Z,8.77
2023-09-07T18:46:27.687Z,7.72
2023-09-07T18:48:54.996Z,7.63
2023-09-07T18:51:22.089Z,8.88
2023-09-07T18:53:49.916Z,12.25
2023-09-07T18:56:19.754Z,9.75
2023-09-07T18:58:56.227Z,9.27
2023-09-07T19:01:59.900Z,8.25
2023-09-07T19:04:29.753Z,10.68
2023-09-07T19:07:15.195Z,10.18
2023-09-07T19:09:55.642Z,13.25
2023-09-07T19:12:25.885Z,17.98
2023-09-07T19:14:53.203Z,14.35
2023-09-07T19:17:22.357Z,15.13
2023-09-07T19:19:50.262Z,14.18
2023-09-07T19:22:21.515Z,11.45
2023-09-07T19:24:48.760Z,9.60
2023-09-07T19:27:15.727Z,11.20
2023-09-07T19:29:44.404Z,13.65
2023-09-07T19:32:11.439Z,10.48
2023-09-07T19:34:54.518Z,13.63
2023-09-07T19:37:22.285Z,13.30
2023-09-07T19:39:49.463Z,10.10
2023-09-07T19:42:16.485Z,11.50
2023-09-07T19:44:43.739Z,11.48
2023-09-07T19:47:11.288Z,13.15
2023-09-07T19:49:44.721Z,7.25
2023-09-07T20:02:44.378Z,14.23
2023-09-07T20:05:33.416Z,9.15
2023-09-07T20:08:37.117Z,9.43
2023-09-07T20:11:34.188Z,9.90
2023-09-07T20:15:21.891Z,11.27
2023-09-07T20:17:51.771Z,10.20
2023-09-07T20:20:57.109Z,7.95
2023-09-07T20:24:00.386Z,11.55
2023-09-07T20:26:11.986Z,10.98
2023-09-07T20:28:43.636Z,12.68
2023-09-07T20:34:51.358Z,8.27
2023-09-07T20:37:18.699Z,6.35
2023-09-07T20:39:45.754Z,8.52
2023-09-07T20:42:13.877Z,11.38
2023-09-07T20:44:41.010Z,10.65
2023-09-07T20:47:10.979Z,5.38
2023-09-07T20:49:38.429Z,7.40
2023-09-07T20:52:06.266Z,4.43
2023-09-07T20:54:33.361Z,6.57
2023-09-07T20:57:00.857Z,6.85
2023-09-07T20:59:31.273Z,7.95
2023-09-07T21:01:58.352Z,5.47
2023-09-07T21:04:25.631Z,6.15
2023-09-07T21:06:52.784Z,7.55
2023-09-07T21:09:22.353Z,6.32
2023-09-07T21:11:49.499Z,7.45
2023-09-07T21:14:20.826Z,7.90
2023-09-07T21:16:47.763Z,3.88
2023-09-07T21:19:14.725Z,4.70
2023-09-07T21:21:44.702Z,6.20
2023-09-07T21:24:11.760Z,7.80
2023-09-07T21:26:38.792Z,4.80
2023-09-07T21:29:05.895Z,6.82
2023-09-07T21:31:32.963Z,4.43
2023-09-07T21:34:00.041Z,6.82
2023-09-07T21:36:27.121Z,10.77
2023-09-07T21:38:54.135Z,5.85
2023-09-07T21:41:21.131Z,4.30
2023-09-07T21:43:48.109Z,4.22
2023-09-07T21:46:15.110Z,8.18
2023-09-07T21:48:44.022Z,11.10
2023-09-07T21:51:11.036Z,5.95
2023-09-07T21:53:39.943Z,4.63
2023-09-07T21:56:07.091Z,7.07
2023-09-07T21:58:34.449Z,4.03
2023-09-07T22:01:01.608Z,6.15
2023-09-07T22:03:28.976Z,11.32
2023-09-07T22:05:56.157Z,8.50
2023-09-07T22:08:24.372Z,11.82
2023-09-07T22:10:51.396Z,4.72
2023-09-07T22:13:18.569Z,6.35
2023-09-07T22:15:45.649Z,5.72
2023-09-07T22:18:12.875Z,7.05
2023-09-07T22:20:39.962Z,8.88
2023-09-07T22:23:08.326Z,6.95
2023-09-07T22:25:35.384Z,6.90
2023-09-07T22:28:02.379Z,8.25
2023-09-07T22:30:29.443Z,6.28
2023-09-07T22:32:56.607Z,7.05
2023-09-07T22:35:23.639Z,6.80
2023-09-07T22:37:50.591Z,4.65
2023-09-07T22:40:17.768Z,6.00
2023-09-07T22:42:45.691Z,7.43
2023-09-07T22:45:14.504Z,6.13
2023-09-07T22:47:41.803Z,6.60
2023-09-07T22:50:09.113Z,8.10
2023-09-07T22:52:36.318Z,6.57
2023-09-07T22:55:08.159Z,7.60
2023-09-07T22:57:37.346Z,11.10
2023-09-07T23:00:07.533Z,7.80
2023-09-07T23:02:34.750Z,4.93
2023-09-07T23:05:01.903Z,3.92
2023-09-07T23:07:28.965Z,4.70
2023-09-07T23:09:56.576Z,5.43
2023-09-07T23:12:25.302Z,7.15
2023-09-07T23:14:54.124Z,6.10
2023-09-07T23:17:21.173Z,7.50
2023-09-07T23:19:48.205Z,8.32
2023-09-07T23:22:15.229Z,6.85
2023-09-07T23:24:42.225Z,6.47
2023-09-07T23:27:09.275Z,4.82
2023-09-07T23:29:36.300Z,5.78
2023-09-07T23:32:03.448Z,6.38
2023-09-07T23:34:31.112Z,4.45
2023-09-07T23:36:58.962Z,9.63
2023-09-07T23:39:25.991Z,7.45
2023-09-07T23:41:53.028Z,8.93
2023-09-07T23:44:20.005Z,5.57
2023-09-07T23:46:47.059Z,6.95
2023-09-07T23:49:14.188Z,7.53
2023-09-07T23:51:41.300Z,7.00
2023-09-07T23:54:09.241Z,8.77
2023-09-07T23:56:36.382Z,8.68
2023-09-07T23:59:03.323Z,4.45
